sensor_id;sensor_type;location;lat;lon;timestamp;pressure;altitude;pressure_sealevel;temperature;humidity
71889;BME280;59762;49.998;14.858;2023-04-15T00:00:57;95968.34;;;6.41;100.00
71889;BME280;59762;49.998;14.858;2023-04-15T00:03:23;95964.38;;;6.37;100.00
71889;BME280;59762;49.998;14.858;2023-04-15T00:05:49;95961.56;;;6.38;100.00
71889;BME280;59762;49.998;14.858;2023-04-15T00:08:15;95963.84;;;6.41;100.00
71889;BME280;59762;49.998;14.858;2023-04-15T00:10:41;95959.88;;;6.37;100.00
71889;BME280;59762;49.998;14.858;2023-04-15T00:13:08;95961.41;;;6.32;100.00
71889;BME280;59762;49.998;14.858;2023-04-15T00:15:34;95952.09;;;6.36;100.00
71889;BME280;59762;49.998;14.858;2023-04-15T00:18:00;95961.56;;;6.30;100.00
71889;BME280;59762;49.998;14.858;2023-04-15T00:20:26;95958.06;;;6.38;100.00
71889;BME280;59762;49.998;14.858;2023-04-15T00:22:52;95953.94;;;6.35;100.00
71889;BME280;59762;49.998;14.858;2023-04-15T00:25:18;95951.44;;;6.34;100.00
71889;BME280;59762;49.998;14.858;2023-04-15T00:27:43;95960.22;;;6.34;100.00
71889;BME280;59762;49.998;14.858;2023-04-15T00:30:09;95947.63;;;6.28;100.00
71889;BME280;59762;49.998;14.858;2023-04-15T00:32:36;95957.41;;;6.28;100.00
71889;BME280;59762;49.998;14.858;2023-04-15T00:35:02;95951.94;;;6.29;100.00
71889;BME280;59762;49.998;14.858;2023-04-15T00:37:28;95947.63;;;6.28;100.00
71889;BME280;59762;49.998;14.858;2023-04-15T00:39:54;95939.50;;;6.30;100.00
71889;BME280;59762;49.998;14.858;2023-04-15T00:42:20;95944.50;;;6.25;100.00
71889;BME280;59762;49.998;14.858;2023-04-15T00:44:46;95943.81;;;6.23;100.00
71889;BME280;59762;49.998;14.858;2023-04-15T00:47:12;95949.78;;;6.25;100.00
71889;BME280;59762;49.998;14.858;2023-04-15T00:49:38;95964.03;;;6.24;100.00
71889;BME280;59762;49.998;14.858;2023-04-15T00:52:04;95946.13;;;6.26;100.00
71889;BME280;59762;49.998;14.858;2023-04-15T00:54:29;95948.47;;;6.21;100.00
71889;BME280;59762;49.998;14.858;2023-04-15T00:56:55;95942.31;;;6.20;100.00
71889;BME280;59762;49.998;14.858;2023-04-15T00:59:22;95953.94;;;6.19;100.00
71889;BME280;59762;49.998;14.858;2023-04-15T01:01:48;95952.28;;;6.18;100.00
71889;BME280;59762;49.998;14.858;2023-04-15T01:04:15;95961.41;;;6.16;100.00
71889;BME280;59762;49.998;14.858;2023-04-15T01:06:40;95961.06;;;6.19;100.00
71889;BME280;59762;49.998;14.858;2023-04-15T01:09:06;95965.22;;;6.13;100.00
71889;BME280;59762;49.998;14.858;2023-04-15T01:11:32;95956.59;;;6.19;100.00
71889;BME280;59762;49.998;14.858;2023-04-15T01:13:59;95968.34;;;6.17;100.00
71889;BME280;59762;49.998;14.858;2023-04-15T01:16:24;95975.28;;;6.18;100.00
71889;BME280;59762;49.998;14.858;2023-04-15T01:18:51;95973.66;;;6.17;100.00
71889;BME280;59762;49.998;14.858;2023-04-15T01:21:17;95975.28;;;6.18;100.00
71889;BME280;59762;49.998;14.858;2023-04-15T01:23:45;95977.63;;;6.21;100.00
71889;BME280;59762;49.998;14.858;2023-04-15T01:26:13;95977.28;;;6.16;100.00
71889;BME280;59762;49.998;14.858;2023-04-15T01:28:39;95972.16;;;6.14;100.00
71889;BME280;59762;49.998;14.858;2023-04-15T01:31:12;95980.44;;;6.11;100.00
71889;BME280;59762;49.998;14.858;2023-04-15T01:33:39;95982.28;;;6.19;100.00
71889;BME280;59762;49.998;14.858;2023-04-15T01:36:06;95978.09;;;6.16;100.00
71889;BME280;59762;49.998;14.858;2023-04-15T01:38:33;95983.72;;;6.29;100.00
71889;BME280;59762;49.998;14.858;2023-04-15T01:40:59;95975.13;;;6.27;100.00
71889;BME280;59762;49.998;14.858;2023-04-15T01:43:25;95978.78;;;6.26;100.00
71889;BME280;59762;49.998;14.858;2023-04-15T01:45:52;95978.63;;;6.20;100.00
71889;BME280;59762;49.998;14.858;2023-04-15T01:48:18;95987.06;;;6.15;100.00
71889;BME280;59762;49.998;14.858;2023-04-15T01:50:44;95982.59;;;6.16;100.00
71889;BME280;59762;49.998;14.858;2023-04-15T01:53:10;95991.19;;;6.10;100.00
71889;BME280;59762;49.998;14.858;2023-04-15T01:55:36;95997.50;;;6.09;100.00
71889;BME280;59762;49.998;14.858;2023-04-15T01:58:02;96001.28;;;6.06;100.00
71889;BME280;59762;49.998;14.858;2023-04-15T02:00:28;95989.69;;;6.07;100.00
71889;BME280;59762;49.998;14.858;2023-04-15T02:02:54;95992.34;;;6.15;100.00
71889;BME280;59762;49.998;14.858;2023-04-15T02:05:20;95990.06;;;6.12;100.00
71889;BME280;59762;49.998;14.858;2023-04-15T02:07:46;95990.72;;;6.14;100.00
71889;BME280;59762;49.998;14.858;2023-04-15T02:10:12;95984.06;;;6.10;100.00
71889;BME280;59762;49.998;14.858;2023-04-15T02:12:38;95990.22;;;6.11;100.00
71889;BME280;59762;49.998;14.858;2023-04-15T02:15:05;95993.84;;;6.10;100.00
71889;BME280;59762;49.998;14.858;2023-04-15T02:17:33;95988.56;;;6.02;100.00
71889;BME280;59762;49.998;14.858;2023-04-15T02:20:00;95983.91;;;6.04;100.00
71889;BME280;59762;49.998;14.858;2023-04-15T02:22:26;95998.31;;;5.93;100.00
71889;BME280;59762;49.998;14.858;2023-04-15T02:24:52;96001.47;;;5.89;100.00
71889;BME280;59762;49.998;14.858;2023-04-15T02:27:18;96006.19;;;5.77;100.00
71889;BME280;59762;49.998;14.858;2023-04-15T02:29:44;96014.13;;;5.77;100.00
71889;BME280;59762;49.998;14.858;2023-04-15T02:32:14;96015.78;;;5.70;100.00
71889;BME280;59762;49.998;14.858;2023-04-15T02:34:39;96013.97;;;5.63;100.00
71889;BME280;59762;49.998;14.858;2023-04-15T02:37:11;96012.09;;;5.55;100.00
71889;BME280;59762;49.998;14.858;2023-04-15T02:39:37;96015.59;;;5.56;100.00
71889;BME280;59762;49.998;14.858;2023-04-15T02:42:04;96017.56;;;5.46;100.00
71889;BME280;59762;49.998;14.858;2023-04-15T02:44:31;96025.97;;;5.41;100.00
71889;BME280;59762;49.998;14.858;2023-04-15T02:46:57;96025.63;;;5.36;100.00
71889;BME280;59762;49.998;14.858;2023-04-15T02:49:23;96027.91;;;5.31;100.00
71889;BME280;59762;49.998;14.858;2023-04-15T02:51:50;96032.53;;;5.29;100.00
71889;BME280;59762;49.998;14.858;2023-04-15T02:54:19;96044.06;;;5.20;100.00
71889;BME280;59762;49.998;14.858;2023-04-15T02:56:45;96029.75;;;4.97;100.00
71889;BME280;59762;49.998;14.858;2023-04-15T02:59:11;96044.22;;;4.85;100.00
71889;BME280;59762;49.998;14.858;2023-04-15T03:01:37;96041.06;;;4.82;100.00
71889;BME280;59762;49.998;14.858;2023-04-15T03:04:03;96045.78;;;4.70;100.00
71889;BME280;59762;49.998;14.858;2023-04-15T03:06:29;96039.16;;;4.66;100.00
71889;BME280;59762;49.998;14.858;2023-04-15T03:08:55;96045.00;;;4.52;100.00
71889;BME280;59762;49.998;14.858;2023-04-15T03:11:21;96037.09;;;4.35;100.00
71889;BME280;59762;49.998;14.858;2023-04-15T03:13:47;96052.75;;;4.28;100.00
71889;BME280;59762;49.998;14.858;2023-04-15T03:16:13;96055.53;;;4.27;100.00
71889;BME280;59762;49.998;14.858;2023-04-15T03:18:38;96062.56;;;4.18;100.00
71889;BME280;59762;49.998;14.858;2023-04-15T03:21:04;96057.88;;;4.12;100.00
71889;BME280;59762;49.998;14.858;2023-04-15T03:23:31;96072.53;;;4.07;100.00
71889;BME280;59762;49.998;14.858;2023-04-15T03:25:56;96068.00;;;3.99;100.00
71889;BME280;59762;49.998;14.858;2023-04-15T03:28:23;96069.59;;;3.92;100.00
71889;BME280;59762;49.998;14.858;2023-04-15T03:30:49;96083.09;;;3.89;100.00
71889;BME280;59762;49.998;14.858;2023-04-15T03:33:14;96083.94;;;3.90;100.00
71889;BME280;59762;49.998;14.858;2023-04-15T03:35:40;96076.91;;;3.81;100.00
71889;BME280;59762;49.998;14.858;2023-04-15T03:38:06;96092.59;;;3.82;100.00
71889;BME280;59762;49.998;14.858;2023-04-15T03:40:33;96089.25;;;3.80;100.00
71889;BME280;59762;49.998;14.858;2023-04-15T03:42:58;96090.25;;;3.79;100.00
71889;BME280;59762;49.998;14.858;2023-04-15T03:45:24;96082.19;;;3.81;100.00
71889;BME280;59762;49.998;14.858;2023-04-15T03:47:50;96086.47;;;3.82;100.00
71889;BME280;59762;49.998;14.858;2023-04-15T03:50:16;96091.16;;;3.88;100.00
71889;BME280;59762;49.998;14.858;2023-04-15T03:52:41;96097.66;;;3.76;100.00
71889;BME280;59762;49.998;14.858;2023-04-15T03:55:07;96096.94;;;3.74;100.00
71889;BME280;59762;49.998;14.858;2023-04-15T03:57:33;96101.94;;;3.77;100.00
71889;BME280;59762;49.998;14.858;2023-04-15T04:00:04;96095.69;;;3.78;100.00
71889;BME280;59762;49.998;14.858;2023-04-15T04:02:29;96097.84;;;3.65;100.00
71889;BME280;59762;49.998;14.858;2023-04-15T04:04:55;96100.06;;;3.69;100.00
71889;BME280;59762;49.998;14.858;2023-04-15T04:07:22;96101.16;;;3.67;100.00
71889;BME280;59762;49.998;14.858;2023-04-15T04:09:48;96119.09;;;3.63;100.00
71889;BME280;59762;49.998;14.858;2023-04-15T04:12:14;96109.66;;;3.61;100.00
71889;BME280;59762;49.998;14.858;2023-04-15T04:14:40;96111.88;;;3.65;100.00
71889;BME280;59762;49.998;14.858;2023-04-15T04:17:05;96115.34;;;3.66;100.00
71889;BME280;59762;49.998;14.858;2023-04-15T04:19:31;96115.09;;;3.59;100.00
71889;BME280;59762;49.998;14.858;2023-04-15T04:21:57;96127.84;;;3.64;100.00
71889;BME280;59762;49.998;14.858;2023-04-15T04:24:23;96125.38;;;3.62;100.00
71889;BME280;59762;49.998;14.858;2023-04-15T04:26:48;96118.56;;;3.60;100.00
71889;BME280;59762;49.998;14.858;2023-04-15T04:29:14;96128.84;;;3.63;100.00
71889;BME280;59762;49.998;14.858;2023-04-15T04:31:40;96137.84;;;3.60;100.00
71889;BME280;59762;49.998;14.858;2023-04-15T04:34:06;96136.75;;;3.63;100.00
71889;BME280;59762;49.998;14.858;2023-04-15T04:36:32;96131.47;;;3.63;100.00
71889;BME280;59762;49.998;14.858;2023-04-15T04:38:57;96135.06;;;3.62;100.00
71889;BME280;59762;49.998;14.858;2023-04-15T04:41:23;96138.31;;;3.56;100.00
71889;BME280;59762;49.998;14.858;2023-04-15T04:43:49;96139.94;;;3.66;100.00
71889;BME280;59762;49.998;14.858;2023-04-15T04:46:14;96146.19;;;3.65;100.00
71889;BME280;59762;49.998;14.858;2023-04-15T04:48:40;96149.78;;;3.64;100.00
71889;BME280;59762;49.998;14.858;2023-04-15T04:51:06;96146.75;;;3.59;100.00
71889;BME280;59762;49.998;14.858;2023-04-15T04:53:32;96153.69;;;3.60;100.00
71889;BME280;59762;49.998;14.858;2023-04-15T04:55:58;96152.19;;;3.58;100.00
71889;BME280;59762;49.998;14.858;2023-04-15T04:58:24;96159.81;;;3.88;100.00
71889;BME280;59762;49.998;14.858;2023-04-15T05:00:49;96152.00;;;4.31;100.00
71889;BME280;59762;49.998;14.858;2023-04-15T05:03:15;96154.91;;;4.80;100.00
71889;BME280;59762;49.998;14.858;2023-04-15T05:05:41;96156.56;;;5.50;100.00
71889;BME280;59762;49.998;14.858;2023-04-15T05:08:06;96165.84;;;5.54;100.00
71889;BME280;59762;49.998;14.858;2023-04-15T05:10:32;96169.13;;;5.22;100.00
71889;BME280;59762;49.998;14.858;2023-04-15T05:12:58;96160.28;;;5.14;100.00
71889;BME280;59762;49.998;14.858;2023-04-15T05:15:23;96166.63;;;5.21;100.00
71889;BME280;59762;49.998;14.858;2023-04-15T05:17:50;96163.38;;;5.60;100.00
71889;BME280;59762;49.998;14.858;2023-04-15T05:20:15;96168.56;;;6.11;97.06
71889;BME280;59762;49.998;14.858;2023-04-15T05:22:41;96170.19;;;4.86;100.00
71889;BME280;59762;49.998;14.858;2023-04-15T05:25:07;96179.34;;;4.39;100.00
71889;BME280;59762;49.998;14.858;2023-04-15T05:27:33;96181.91;;;4.66;100.00
71889;BME280;59762;49.998;14.858;2023-04-15T05:29:59;96182.75;;;4.49;100.00
71889;BME280;59762;49.998;14.858;2023-04-15T05:32:25;96184.03;;;4.45;100.00
71889;BME280;59762;49.998;14.858;2023-04-15T05:34:50;96189.59;;;4.25;100.00
71889;BME280;59762;49.998;14.858;2023-04-15T05:37:16;96188.53;;;4.18;100.00
71889;BME280;59762;49.998;14.858;2023-04-15T05:39:45;96188.09;;;4.22;100.00
71889;BME280;59762;49.998;14.858;2023-04-15T05:42:11;96188.25;;;4.21;100.00
71889;BME280;59762;49.998;14.858;2023-04-15T05:44:36;96200.22;;;3.98;100.00
71889;BME280;59762;49.998;14.858;2023-04-15T05:47:02;96205.75;;;4.22;100.00
71889;BME280;59762;49.998;14.858;2023-04-15T05:49:28;96211.28;;;4.01;100.00
71889;BME280;59762;49.998;14.858;2023-04-15T05:51:54;96208.06;;;4.07;100.00
71889;BME280;59762;49.998;14.858;2023-04-15T05:54:20;96215.69;;;4.10;100.00
71889;BME280;59762;49.998;14.858;2023-04-15T05:56:47;96221.66;;;4.12;100.00
71889;BME280;59762;49.998;14.858;2023-04-15T05:59:13;96221.25;;;4.34;100.00
71889;BME280;59762;49.998;14.858;2023-04-15T06:01:39;96223.06;;;4.34;100.00
71889;BME280;59762;49.998;14.858;2023-04-15T06:04:04;96213.25;;;4.26;100.00
71889;BME280;59762;49.998;14.858;2023-04-15T06:06:30;96210.75;;;4.25;100.00
71889;BME280;59762;49.998;14.858;2023-04-15T06:08:57;96207.16;;;4.43;100.00
71889;BME280;59762;49.998;14.858;2023-04-15T06:11:23;96214.75;;;4.81;100.00
71889;BME280;59762;49.998;14.858;2023-04-15T06:13:48;96224.00;;;5.20;100.00
71889;BME280;59762;49.998;14.858;2023-04-15T06:16:14;96231.41;;;5.34;99.61
71889;BME280;59762;49.998;14.858;2023-04-15T06:18:40;96227.75;;;4.57;96.90
71889;BME280;59762;49.998;14.858;2023-04-15T06:21:05;96216.78;;;5.05;98.43
71889;BME280;59762;49.998;14.858;2023-04-15T06:23:34;96219.03;;;5.00;100.00
71889;BME280;59762;49.998;14.858;2023-04-15T06:26:01;96222.91;;;4.88;100.00
71889;BME280;59762;49.998;14.858;2023-04-15T06:28:27;96224.81;;;4.78;97.74
71889;BME280;59762;49.998;14.858;2023-04-15T06:30:53;96232.25;;;5.17;95.68
71889;BME280;59762;49.998;14.858;2023-04-15T06:33:18;96233.38;;;4.72;96.54
71889;BME280;59762;49.998;14.858;2023-04-15T06:35:44;96235.19;;;4.54;95.25
71889;BME280;59762;49.998;14.858;2023-04-15T06:38:10;96248.97;;;4.48;93.66
71889;BME280;59762;49.998;14.858;2023-04-15T06:40:36;96254.94;;;4.67;98.12
71889;BME280;59762;49.998;14.858;2023-04-15T06:43:02;96262.78;;;4.59;93.13
71889;BME280;59762;49.998;14.858;2023-04-15T06:45:29;96270.44;;;4.62;97.30
71889;BME280;59762;49.998;14.858;2023-04-15T06:47:55;96262.06;;;4.67;96.69
71889;BME280;59762;49.998;14.858;2023-04-15T06:50:21;96266.72;;;4.55;96.27
71889;BME280;59762;49.998;14.858;2023-04-15T06:52:46;96261.75;;;4.70;100.00
71889;BME280;59762;49.998;14.858;2023-04-15T06:55:12;96266.13;;;4.79;98.09
71889;BME280;59762;49.998;14.858;2023-04-15T06:57:39;96259.63;;;4.56;95.43
71889;BME280;59762;49.998;14.858;2023-04-15T07:00:05;96271.94;;;4.65;98.87
71889;BME280;59762;49.998;14.858;2023-04-15T07:02:32;96283.81;;;4.61;100.00
71889;BME280;59762;49.998;14.858;2023-04-15T07:04:57;96281.69;;;4.64;99.84
71889;BME280;59762;49.998;14.858;2023-04-15T07:07:23;96275.66;;;4.72;100.00
71889;BME280;59762;49.998;14.858;2023-04-15T07:09:50;96267.13;;;4.78;100.00
71889;BME280;59762;49.998;14.858;2023-04-15T07:12:18;96274.63;;;4.82;98.63
71889;BME280;59762;49.998;14.858;2023-04-15T07:14:44;96278.59;;;4.69;99.10
71889;BME280;59762;49.998;14.858;2023-04-15T07:17:09;96283.69;;;4.80;100.00
71889;BME280;59762;49.998;14.858;2023-04-15T07:19:36;96288.66;;;4.83;100.00
71889;BME280;59762;49.998;14.858;2023-04-15T07:22:02;96291.91;;;4.94;100.00
71889;BME280;59762;49.998;14.858;2023-04-15T07:24:28;96295.00;;;4.72;100.00
71889;BME280;59762;49.998;14.858;2023-04-15T07:26:54;96298.19;;;4.76;100.00
71889;BME280;59762;49.998;14.858;2023-04-15T07:29:24;96289.63;;;4.82;100.00
71889;BME280;59762;49.998;14.858;2023-04-15T07:31:49;96308.28;;;4.80;100.00
71889;BME280;59762;49.998;14.858;2023-04-15T07:34:16;96306.03;;;4.68;100.00
71889;BME280;59762;49.998;14.858;2023-04-15T07:36:42;96314.81;;;4.86;100.00
71889;BME280;59762;49.998;14.858;2023-04-15T07:39:07;96304.16;;;4.95;100.00
71889;BME280;59762;49.998;14.858;2023-04-15T07:41:33;96304.53;;;5.00;100.00
71889;BME280;59762;49.998;14.858;2023-04-15T07:43:59;96305.97;;;4.95;100.00
71889;BME280;59762;49.998;14.858;2023-04-15T07:46:25;96300.69;;;4.95;99.57
71889;BME280;59762;49.998;14.858;2023-04-15T07:48:52;96307.50;;;5.15;100.00
71889;BME280;59762;49.998;14.858;2023-04-15T07:51:19;96300.97;;;5.09;100.00
71889;BME280;59762;49.998;14.858;2023-04-15T07:53:46;96307.25;;;5.08;100.00
71889;BME280;59762;49.998;14.858;2023-04-15T07:56:12;96311.63;;;5.35;100.00
71889;BME280;59762;49.998;14.858;2023-04-15T07:58:38;96313.00;;;5.04;97.70
71889;BME280;59762;49.998;14.858;2023-04-15T08:01:04;96314.97;;;5.19;98.94
71889;BME280;59762;49.998;14.858;2023-04-15T08:03:30;96313.91;;;5.30;95.86
71889;BME280;59762;49.998;14.858;2023-04-15T08:05:56;96320.56;;;4.99;98.35
71889;BME280;59762;49.998;14.858;2023-04-15T08:08:22;96316.78;;;5.01;100.00
71889;BME280;59762;49.998;14.858;2023-04-15T08:10:48;96321.22;;;5.01;100.00
71889;BME280;59762;49.998;14.858;2023-04-15T08:13:14;96323.59;;;5.21;100.00
71889;BME280;59762;49.998;14.858;2023-04-15T08:15:40;96329.44;;;5.50;99.14
71889;BME280;59762;49.998;14.858;2023-04-15T08:18:06;96326.22;;;5.39;100.00
71889;BME280;59762;49.998;14.858;2023-04-15T08:20:32;96331.28;;;5.32;100.00
71889;BME280;59762;49.998;14.858;2023-04-15T08:22:58;96337.47;;;5.23;100.00
71889;BME280;59762;49.998;14.858;2023-04-15T08:25:24;96334.63;;;5.34;98.98
71889;BME280;59762;49.998;14.858;2023-04-15T08:27:50;96342.13;;;5.21;100.00
71889;BME280;59762;49.998;14.858;2023-04-15T08:30:17;96337.31;;;5.60;99.15
71889;BME280;59762;49.998;14.858;2023-04-15T08:32:48;96341.16;;;5.65;93.41
71889;BME280;59762;49.998;14.858;2023-04-15T08:35:13;96336.38;;;5.86;93.77
71889;BME280;59762;49.998;14.858;2023-04-15T08:37:39;96343.03;;;5.55;95.90
71889;BME280;59762;49.998;14.858;2023-04-15T08:40:05;96343.06;;;5.98;93.98
71889;BME280;59762;49.998;14.858;2023-04-15T08:42:36;96354.66;;;5.97;97.18
71889;BME280;59762;49.998;14.858;2023-04-15T08:45:08;96360.66;;;5.99;93.52
71889;BME280;59762;49.998;14.858;2023-04-15T08:47:36;96356.69;;;5.60;92.59
71889;BME280;59762;49.998;14.858;2023-04-15T08:50:03;96351.28;;;6.13;93.57
71889;BME280;59762;49.998;14.858;2023-04-15T08:52:30;96345.84;;;6.56;88.74
71889;BME280;59762;49.998;14.858;2023-04-15T08:54:57;96354.56;;;6.07;87.10
71889;BME280;59762;49.998;14.858;2023-04-15T08:57:28;96354.03;;;6.29;88.97
71889;BME280;59762;49.998;14.858;2023-04-15T08:59:57;96356.78;;;6.53;89.77
71889;BME280;59762;49.998;14.858;2023-04-15T09:02:24;96358.88;;;6.83;88.14
71889;BME280;59762;49.998;14.858;2023-04-15T09:04:52;96356.03;;;6.76;87.69
71889;BME280;59762;49.998;14.858;2023-04-15T09:07:18;96364.22;;;6.49;88.42
71889;BME280;59762;49.998;14.858;2023-04-15T09:09:44;96357.28;;;6.23;90.10
71889;BME280;59762;49.998;14.858;2023-04-15T09:12:11;96368.41;;;6.01;90.63
71889;BME280;59762;49.998;14.858;2023-04-15T09:14:39;96365.19;;;6.40;92.10
71889;BME280;59762;49.998;14.858;2023-04-15T09:17:05;96361.06;;;6.46;88.14
71889;BME280;59762;49.998;14.858;2023-04-15T09:19:34;96364.03;;;6.43;86.37
71889;BME280;59762;49.998;14.858;2023-04-15T09:22:00;96367.78;;;6.32;91.18
71889;BME280;59762;49.998;14.858;2023-04-15T09:24:35;96367.44;;;6.27;89.29
71889;BME280;59762;49.998;14.858;2023-04-15T09:27:02;96366.59;;;6.60;87.23
71889;BME280;59762;49.998;14.858;2023-04-15T09:29:27;96375.63;;;6.42;85.86
71889;BME280;59762;49.998;14.858;2023-04-15T09:31:53;96371.38;;;6.98;86.67
71889;BME280;59762;49.998;14.858;2023-04-15T09:34:19;96374.09;;;7.22;84.56
71889;BME280;59762;49.998;14.858;2023-04-15T09:39:12;96372.28;;;7.39;82.77
71889;BME280;59762;49.998;14.858;2023-04-15T09:41:38;96369.16;;;7.35;81.42
71889;BME280;59762;49.998;14.858;2023-04-15T09:44:03;96377.72;;;7.13;83.23
71889;BME280;59762;49.998;14.858;2023-04-15T09:46:42;96377.09;;;6.78;82.76
71889;BME280;59762;49.998;14.858;2023-04-15T09:49:11;96388.38;;;6.72;83.33
71889;BME280;59762;49.998;14.858;2023-04-15T09:51:38;96381.75;;;6.76;87.27
71889;BME280;59762;49.998;14.858;2023-04-15T09:54:03;96384.63;;;6.57;84.43
71889;BME280;59762;49.998;14.858;2023-04-15T09:56:36;96383.66;;;6.58;84.14
71889;BME280;59762;49.998;14.858;2023-04-15T09:59:07;96384.63;;;6.57;84.51
71889;BME280;59762;49.998;14.858;2023-04-15T10:01:33;96392.28;;;6.60;83.87
71889;BME280;59762;49.998;14.858;2023-04-15T10:04:02;96391.25;;;6.86;86.70
71889;BME280;59762;49.998;14.858;2023-04-15T10:06:28;96389.69;;;7.17;85.38
71889;BME280;59762;49.998;14.858;2023-04-15T10:08:56;96392.34;;;7.17;80.47
71889;BME280;59762;49.998;14.858;2023-04-15T10:11:23;96390.41;;;7.51;82.98
71889;BME280;59762;49.998;14.858;2023-04-15T10:13:49;96383.94;;;7.86;78.43
71889;BME280;59762;49.998;14.858;2023-04-15T10:16:18;96388.44;;;8.26;78.46
71889;BME280;59762;49.998;14.858;2023-04-15T10:18:46;96384.94;;;8.33;76.81
71889;BME280;59762;49.998;14.858;2023-04-15T10:21:13;96383.06;;;8.42;75.72
71889;BME280;59762;49.998;14.858;2023-04-15T10:23:41;96384.47;;;8.22;77.06
71889;BME280;59762;49.998;14.858;2023-04-15T10:26:08;96381.78;;;8.22;77.65
71889;BME280;59762;49.998;14.858;2023-04-15T10:28:37;96386.41;;;8.11;76.27
71889;BME280;59762;49.998;14.858;2023-04-15T10:31:03;96395.75;;;7.99;77.22
71889;BME280;59762;49.998;14.858;2023-04-15T10:33:30;96392.72;;;7.54;74.72
71889;BME280;59762;49.998;14.858;2023-04-15T10:35:56;96397.53;;;7.43;79.82
71889;BME280;59762;49.998;14.858;2023-04-15T10:38:43;96396.88;;;7.65;80.41
71889;BME280;59762;49.998;14.858;2023-04-15T10:41:27;96396.06;;;7.64;80.79
71889;BME280;59762;49.998;14.858;2023-04-15T10:44:02;96406.16;;;7.53;80.57
71889;BME280;59762;49.998;14.858;2023-04-15T10:46:45;96409.34;;;7.56;82.43
71889;BME280;59762;49.998;14.858;2023-04-15T10:49:11;96410.75;;;7.27;81.36
71889;BME280;59762;49.998;14.858;2023-04-15T10:51:39;96422.03;;;7.21;77.75
71889;BME280;59762;49.998;14.858;2023-04-15T10:54:14;96426.84;;;7.17;80.04
71889;BME280;59762;49.998;14.858;2023-04-15T10:56:44;96428.03;;;7.23;81.66
71889;BME280;59762;49.998;14.858;2023-04-15T10:59:10;96425.19;;;7.16;79.72
71889;BME280;59762;49.998;14.858;2023-04-15T11:02:05;96422.16;;;7.11;81.68
71889;BME280;59762;49.998;14.858;2023-04-15T11:04:53;96433.47;;;7.13;82.09
71889;BME280;59762;49.998;14.858;2023-04-15T11:12:47;96439.38;;;6.91;82.09
71889;BME280;59762;49.998;14.858;2023-04-15T11:20:40;96448.44;;;6.55;82.82
71889;BME280;59762;49.998;14.858;2023-04-15T11:23:06;96447.53;;;6.72;84.72
71889;BME280;59762;49.998;14.858;2023-04-15T11:25:34;96459.84;;;6.81;81.85
71889;BME280;59762;49.998;14.858;2023-04-15T11:28:01;96455.09;;;6.85;85.27
71889;BME280;59762;49.998;14.858;2023-04-15T11:30:29;96460.44;;;7.01;83.88
71889;BME280;59762;49.998;14.858;2023-04-15T11:33:00;96466.28;;;7.04;85.24
71889;BME280;59762;49.998;14.858;2023-04-15T11:35:26;96465.41;;;6.96;86.74
71889;BME280;59762;49.998;14.858;2023-04-15T11:37:53;96464.69;;;6.86;87.10
71889;BME280;59762;49.998;14.858;2023-04-15T11:40:27;96461.28;;;7.01;86.22
71889;BME280;59762;49.998;14.858;2023-04-15T11:45:32;96470.19;;;7.34;82.87
71889;BME280;59762;49.998;14.858;2023-04-15T11:48:09;96464.13;;;7.57;83.92
71889;BME280;59762;49.998;14.858;2023-04-15T11:50:36;96469.16;;;7.68;80.91
71889;BME280;59762;49.998;14.858;2023-04-15T11:53:04;96462.69;;;7.95;79.10
71889;BME280;59762;49.998;14.858;2023-04-15T11:55:30;96471.69;;;8.10;79.93
71889;BME280;59762;49.998;14.858;2023-04-15T11:58:14;96465.19;;;8.61;76.91
71889;BME280;59762;49.998;14.858;2023-04-15T12:00:45;96463.34;;;8.61;77.17
71889;BME280;59762;49.998;14.858;2023-04-15T12:03:23;96459.16;;;8.83;76.45
71889;BME280;59762;49.998;14.858;2023-04-15T12:11:39;96474.81;;;8.78;73.34
71889;BME280;59762;49.998;14.858;2023-04-15T12:16:42;96480.19;;;8.30;77.28
71889;BME280;59762;49.998;14.858;2023-04-15T12:19:12;96473.28;;;8.83;74.49
71889;BME280;59762;49.998;14.858;2023-04-15T12:21:40;96478.66;;;8.67;74.29
71889;BME280;59762;49.998;14.858;2023-04-15T12:24:08;96480.16;;;8.46;73.61
71889;BME280;59762;49.998;14.858;2023-04-15T12:26:36;96479.75;;;8.81;76.81
71889;BME280;59762;49.998;14.858;2023-04-15T12:29:06;96482.09;;;8.76;75.96
71889;BME280;59762;49.998;14.858;2023-04-15T12:31:35;96483.72;;;8.93;76.76
71889;BME280;59762;49.998;14.858;2023-04-15T12:34:05;96477.63;;;8.76;73.53
71889;BME280;59762;49.998;14.858;2023-04-15T12:36:32;96489.28;;;8.75;74.94
71889;BME280;59762;49.998;14.858;2023-04-15T12:39:04;96481.75;;;8.87;73.07
71889;BME280;59762;49.998;14.858;2023-04-15T12:41:31;96489.38;;;8.90;74.64
71889;BME280;59762;49.998;14.858;2023-04-15T12:43:57;96487.75;;;8.89;73.95
71889;BME280;59762;49.998;14.858;2023-04-15T12:46:24;96484.94;;;8.74;73.31
71889;BME280;59762;49.998;14.858;2023-04-15T12:48:50;96488.59;;;8.81;72.22
71889;BME280;59762;49.998;14.858;2023-04-15T12:51:18;96490.50;;;9.50;73.81
71889;BME280;59762;49.998;14.858;2023-04-15T12:53:44;96485.69;;;9.76;71.43
71889;BME280;59762;49.998;14.858;2023-04-15T12:56:09;96497.19;;;9.46;72.18
71889;BME280;59762;49.998;14.858;2023-04-15T12:58:35;96494.25;;;9.33;73.99
71889;BME280;59762;49.998;14.858;2023-04-15T13:01:00;96507.06;;;9.68;75.73
71889;BME280;59762;49.998;14.858;2023-04-15T13:03:26;96504.88;;;10.02;72.94
71889;BME280;59762;49.998;14.858;2023-04-15T13:05:52;96513.03;;;10.08;71.39
71889;BME280;59762;49.998;14.858;2023-04-15T13:08:18;96507.28;;;9.89;70.45
71889;BME280;59762;49.998;14.858;2023-04-15T13:10:43;96513.59;;;9.65;72.24
71889;BME280;59762;49.998;14.858;2023-04-15T13:13:09;96521.31;;;9.06;73.88
71889;BME280;59762;49.998;14.858;2023-04-15T13:15:35;96526.00;;;9.04;77.05
71889;BME280;59762;49.998;14.858;2023-04-15T13:18:00;96518.88;;;8.88;75.39